sensor_id;sensor_type;location;lat;lon;timestamp;P1;durP1;ratioP1;P2;durP2;ratioP2
32393;SDS011;18853;45.426;9.206;2023-04-03T00:01:17;10.35;;;6.90;;
32393;SDS011;18853;45.426;9.206;2023-04-03T00:03:43;8.60;;;5.90;;
32393;SDS011;18853;45.426;9.206;2023-04-03T00:06:10;11.35;;;6.72;;
32393;SDS011;18853;45.426;9.206;2023-04-03T00:08:37;10.32;;;6.32;;
32393;SDS011;18853;45.426;9.206;2023-04-03T00:11:04;8.68;;;5.85;;
32393;SDS011;18853;45.426;9.206;2023-04-03T00:13:32;9.63;;;6.05;;
32393;SDS011;18853;45.426;9.206;2023-04-03T00:15:58;8.55;;;6.20;;
32393;SDS011;18853;45.426;9.206;2023-04-03T00:18:24;11.07;;;6.53;;
32393;SDS011;18853;45.426;9.206;2023-04-03T00:20:50;9.88;;;6.78;;
32393;SDS011;18853;45.426;9.206;2023-04-03T00:23:16;12.07;;;6.63;;
32393;SDS011;18853;45.426;9.206;2023-04-03T00:25:42;10.30;;;6.47;;
32393;SDS011;18853;45.426;9.206;2023-04-03T00:28:08;11.95;;;7.15;;
32393;SDS011;18853;45.426;9.206;2023-04-03T00:30:34;8.75;;;6.35;;
32393;SDS011;18853;45.426;9.206;2023-04-03T00:33:00;8.95;;;6.38;;
32393;SDS011;18853;45.426;9.206;2023-04-03T00:35:26;11.57;;;7.50;;
32393;SDS011;18853;45.426;9.206;2023-04-03T00:37:52;10.05;;;7.15;;
32393;SDS011;18853;45.426;9.206;2023-04-03T00:40:18;14.18;;;7.15;;
32393;SDS011;18853;45.426;9.206;2023-04-03T00:42:45;10.15;;;6.70;;
32393;SDS011;18853;45.426;9.206;2023-04-03T00:45:33;10.10;;;7.05;;
32393;SDS011;18853;45.426;9.206;2023-04-03T00:48:03;11.10;;;6.90;;
32393;SDS011;18853;45.426;9.206;2023-04-03T00:50:31;11.32;;;6.90;;
32393;SDS011;18853;45.426;9.206;2023-04-03T00:53:00;11.95;;;6.97;;
32393;SDS011;18853;45.426;9.206;2023-04-03T00:55:26;12.85;;;6.68;;
32393;SDS011;18853;45.426;9.206;2023-04-03T00:57:52;10.10;;;6.93;;
32393;SDS011;18853;45.426;9.206;2023-04-03T01:00:20;11.23;;;7.60;;
32393;SDS011;18853;45.426;9.206;2023-04-03T01:02:48;14.43;;;7.72;;
32393;SDS011;18853;45.426;9.206;2023-04-03T01:05:15;11.18;;;7.95;;
32393;SDS011;18853;45.426;9.206;2023-04-03T01:07:42;9.27;;;7.10;;
32393;SDS011;18853;45.426;9.206;2023-04-03T01:10:11;12.95;;;8.20;;
32393;SDS011;18853;45.426;9.206;2023-04-03T01:12:40;11.05;;;8.00;;
32393;SDS011;18853;45.426;9.206;2023-04-03T01:15:08;12.07;;;8.35;;
32393;SDS011;18853;45.426;9.206;2023-04-03T01:25:21;12.13;;;8.23;;
32393;SDS011;18853;45.426;9.206;2023-04-03T01:27:47;11.95;;;8.75;;
32393;SDS011;18853;45.426;9.206;2023-04-03T01:30:13;13.98;;;8.93;;
32393;SDS011;18853;45.426;9.206;2023-04-03T01:32:41;12.27;;;9.38;;
32393;SDS011;18853;45.426;9.206;2023-04-03T01:35:08;12.55;;;9.85;;
32393;SDS011;18853;45.426;9.206;2023-04-03T01:37:34;13.18;;;9.27;;
32393;SDS011;18853;45.426;9.206;2023-04-03T01:40:00;14.10;;;9.52;;
32393;SDS011;18853;45.426;9.206;2023-04-03T01:42:26;13.40;;;8.88;;
32393;SDS011;18853;45.426;9.206;2023-04-03T01:44:52;12.45;;;9.05;;
32393;SDS011;18853;45.426;9.206;2023-04-03T01:47:17;13.15;;;9.40;;
32393;SDS011;18853;45.426;9.206;2023-04-03T01:49:43;14.00;;;9.45;;
32393;SDS011;18853;45.426;9.206;2023-04-03T01:52:09;12.63;;;8.73;;
32393;SDS011;18853;45.426;9.206;2023-04-03T01:54:35;13.55;;;9.25;;
32393;SDS011;18853;45.426;9.206;2023-04-03T01:57:00;14.95;;;8.82;;
32393;SDS011;18853;45.426;9.206;2023-04-03T01:59:26;11.85;;;9.18;;
32393;SDS011;18853;45.426;9.206;2023-04-03T02:01:53;14.38;;;9.40;;
32393;SDS011;18853;45.426;9.206;2023-04-03T02:04:18;15.25;;;8.77;;
32393;SDS011;18853;45.426;9.206;2023-04-03T02:06:44;12.40;;;8.60;;
32393;SDS011;18853;45.426;9.206;2023-04-03T02:09:10;12.80;;;9.35;;
32393;SDS011;18853;45.426;9.206;2023-04-03T02:11:35;14.18;;;10.23;;
32393;SDS011;18853;45.426;9.206;2023-04-03T02:14:01;13.93;;;10.05;;
32393;SDS011;18853;45.426;9.206;2023-04-03T02:16:27;15.38;;;9.63;;
32393;SDS011;18853;45.426;9.206;2023-04-03T02:18:53;14.15;;;9.88;;
32393;SDS011;18853;45.426;9.206;2023-04-03T02:21:19;12.50;;;10.25;;
32393;SDS011;18853;45.426;9.206;2023-04-03T02:23:45;14.13;;;10.02;;
32393;SDS011;18853;45.426;9.206;2023-04-03T02:26:13;15.35;;;10.27;;
32393;SDS011;18853;45.426;9.206;2023-04-03T02:28:40;12.45;;;9.13;;
32393;SDS011;18853;45.426;9.206;2023-04-03T02:31:09;12.55;;;9.70;;
32393;SDS011;18853;45.426;9.206;2023-04-03T02:33:35;13.07;;;10.00;;
32393;SDS011;18853;45.426;9.206;2023-04-03T02:36:02;15.45;;;10.07;;
32393;SDS011;18853;45.426;9.206;2023-04-03T02:38:29;16.20;;;10.48;;
32393;SDS011;18853;45.426;9.206;2023-04-03T02:41:05;16.35;;;9.85;;
32393;SDS011;18853;45.426;9.206;2023-04-03T02:43:33;16.42;;;10.63;;
32393;SDS011;18853;45.426;9.206;2023-04-03T02:45:59;18.08;;;10.07;;
32393;SDS011;18853;45.426;9.206;2023-04-03T02:48:25;13.10;;;9.70;;
32393;SDS011;18853;45.426;9.206;2023-04-03T02:50:51;15.35;;;9.77;;
32393;SDS011;18853;45.426;9.206;2023-04-03T02:53:17;12.38;;;9.18;;
32393;SDS011;18853;45.426;9.206;2023-04-03T02:55:44;12.70;;;9.50;;
32393;SDS011;18853;45.426;9.206;2023-04-03T02:58:10;11.65;;;9.48;;
32393;SDS011;18853;45.426;9.206;2023-04-03T03:00:36;14.23;;;10.05;;
32393;SDS011;18853;45.426;9.206;2023-04-03T03:03:01;12.63;;;9.43;;
32393;SDS011;18853;45.426;9.206;2023-04-03T03:05:27;13.82;;;9.40;;
32393;SDS011;18853;45.426;9.206;2023-04-03T03:07:53;12.00;;;9.18;;
32393;SDS011;18853;45.426;9.206;2023-04-03T03:10:19;13.85;;;10.40;;
32393;SDS011;18853;45.426;9.206;2023-04-03T03:12:45;11.95;;;9.68;;
32393;SDS011;18853;45.426;9.206;2023-04-03T03:15:11;15.07;;;10.05;;
32393;SDS011;18853;45.426;9.206;2023-04-03T03:17:37;14.20;;;9.52;;
32393;SDS011;18853;45.426;9.206;2023-04-03T03:20:03;13.05;;;10.30;;
32393;SDS011;18853;45.426;9.206;2023-04-03T03:22:30;15.48;;;10.70;;
32393;SDS011;18853;45.426;9.206;2023-04-03T03:24:56;15.35;;;10.57;;
32393;SDS011;18853;45.426;9.206;2023-04-03T03:27:21;13.93;;;10.30;;
32393;SDS011;18853;45.426;9.206;2023-04-03T03:29:47;14.45;;;10.30;;
32393;SDS011;18853;45.426;9.206;2023-04-03T03:32:13;14.93;;;10.73;;
32393;SDS011;18853;45.426;9.206;2023-04-03T03:34:38;13.23;;;9.75;;
32393;SDS011;18853;45.426;9.206;2023-04-03T03:37:04;14.23;;;10.07;;
32393;SDS011;18853;45.426;9.206;2023-04-03T03:39:30;17.58;;;11.63;;
32393;SDS011;18853;45.426;9.206;2023-04-03T03:41:55;16.67;;;10.52;;
32393;SDS011;18853;45.426;9.206;2023-04-03T03:44:21;15.15;;;10.30;;
32393;SDS011;18853;45.426;9.206;2023-04-03T03:46:47;14.73;;;11.07;;
32393;SDS011;18853;45.426;9.206;2023-04-03T03:49:13;15.05;;;11.10;;
32393;SDS011;18853;45.426;9.206;2023-04-03T03:51:39;14.18;;;10.90;;
32393;SDS011;18853;45.426;9.206;2023-04-03T03:54:05;14.10;;;10.77;;
32393;SDS011;18853;45.426;9.206;2023-04-03T03:56:32;14.25;;;10.82;;
32393;SDS011;18853;45.426;9.206;2023-04-03T03:58:57;16.40;;;10.73;;
32393;SDS011;18853;45.426;9.206;2023-04-03T04:01:23;13.68;;;10.45;;
32393;SDS011;18853;45.426;9.206;2023-04-03T04:03:49;16.02;;;11.05;;
32393;SDS011;18853;45.426;9.206;2023-04-03T04:06:15;16.45;;;11.20;;
32393;SDS011;18853;45.426;9.206;2023-04-03T04:08:41;16.35;;;10.75;;
32393;SDS011;18853;45.426;9.206;2023-04-03T04:11:07;16.67;;;10.57;;
32393;SDS011;18853;45.426;9.206;2023-04-03T04:13:34;13.65;;;11.05;;
32393;SDS011;18853;45.426;9.206;2023-04-03T04:15:59;15.65;;;10.60;;
32393;SDS011;18853;45.426;9.206;2023-04-03T04:18:25;15.15;;;11.40;;
32393;SDS011;18853;45.426;9.206;2023-04-03T04:20:52;14.90;;;10.82;;
32393;SDS011;18853;45.426;9.206;2023-04-03T04:23:18;16.33;;;10.82;;
32393;SDS011;18853;45.426;9.206;2023-04-03T04:25:44;15.98;;;11.55;;
32393;SDS011;18853;45.426;9.206;2023-04-03T04:28:11;16.55;;;11.57;;
32393;SDS011;18853;45.426;9.206;2023-04-03T04:30:37;19.92;;;13.80;;
32393;SDS011;18853;45.426;9.206;2023-04-03T04:33:03;17.77;;;12.82;;
32393;SDS011;18853;45.426;9.206;2023-04-03T04:35:29;18.20;;;12.45;;
32393;SDS011;18853;45.426;9.206;2023-04-03T04:37:55;18.13;;;12.45;;
32393;SDS011;18853;45.426;9.206;2023-04-03T04:40:21;17.95;;;12.73;;
32393;SDS011;18853;45.426;9.206;2023-04-03T04:42:47;16.75;;;12.50;;
32393;SDS011;18853;45.426;9.206;2023-04-03T04:45:12;15.30;;;11.90;;
32393;SDS011;18853;45.426;9.206;2023-04-03T04:47:39;15.50;;;11.88;;
32393;SDS011;18853;45.426;9.206;2023-04-03T04:50:06;17.48;;;12.48;;
32393;SDS011;18853;45.426;9.206;2023-04-03T04:52:32;15.13;;;12.27;;
32393;SDS011;18853;45.426;9.206;2023-04-03T04:54:57;16.98;;;11.73;;
32393;SDS011;18853;45.426;9.206;2023-04-03T04:57:23;18.48;;;12.13;;
32393;SDS011;18853;45.426;9.206;2023-04-03T04:59:49;15.52;;;12.07;;
32393;SDS011;18853;45.426;9.206;2023-04-03T05:02:15;19.63;;;12.07;;
32393;SDS011;18853;45.426;9.206;2023-04-03T05:04:40;17.25;;;11.95;;
32393;SDS011;18853;45.426;9.206;2023-04-03T05:07:06;15.25;;;11.75;;
32393;SDS011;18853;45.426;9.206;2023-04-03T05:09:32;15.30;;;11.60;;
32393;SDS011;18853;45.426;9.206;2023-04-03T05:11:58;17.85;;;12.52;;
32393;SDS011;18853;45.426;9.206;2023-04-03T05:14:23;16.42;;;11.55;;
32393;SDS011;18853;45.426;9.206;2023-04-03T05:16:49;18.88;;;11.48;;
32393;SDS011;18853;45.426;9.206;2023-04-03T05:19:19;15.75;;;11.55;;
32393;SDS011;18853;45.426;9.206;2023-04-03T05:21:45;17.35;;;12.23;;
32393;SDS011;18853;45.426;9.206;2023-04-03T05:24:11;16.58;;;11.88;;
32393;SDS011;18853;45.426;9.206;2023-04-03T05:26:37;18.05;;;12.77;;
32393;SDS011;18853;45.426;9.206;2023-04-03T05:29:03;15.88;;;12.45;;
32393;SDS011;18853;45.426;9.206;2023-04-03T05:31:29;17.85;;;12.27;;
32393;SDS011;18853;45.426;9.206;2023-04-03T05:33:55;18.73;;;12.30;;
32393;SDS011;18853;45.426;9.206;2023-04-03T05:36:21;20.20;;;12.40;;
32393;SDS011;18853;45.426;9.206;2023-04-03T05:38:47;19.25;;;12.45;;
32393;SDS011;18853;45.426;9.206;2023-04-03T05:41:14;19.88;;;12.10;;
32393;SDS011;18853;45.426;9.206;2023-04-03T05:43:40;17.17;;;12.00;;
32393;SDS011;18853;45.426;9.206;2023-04-03T05:46:10;18.75;;;11.70;;
32393;SDS011;18853;45.426;9.206;2023-04-03T05:48:40;18.38;;;12.23;;
32393;SDS011;18853;45.426;9.206;2023-04-03T05:51:06;20.95;;;12.38;;
32393;SDS011;18853;45.426;9.206;2023-04-03T05:53:38;16.00;;;12.35;;
32393;SDS011;18853;45.426;9.206;2023-04-03T05:56:04;17.98;;;12.10;;
32393;SDS011;18853;45.426;9.206;2023-04-03T05:58:30;21.17;;;13.45;;
32393;SDS011;18853;45.426;9.206;2023-04-03T06:00:56;21.38;;;12.40;;
32393;SDS011;18853;45.426;9.206;2023-04-03T06:03:22;18.20;;;13.98;;
32393;SDS011;18853;45.426;9.206;2023-04-03T06:05:48;16.50;;;12.25;;
32393;SDS011;18853;45.426;9.206;2023-04-03T06:08:13;18.65;;;12.82;;
32393;SDS011;18853;45.426;9.206;2023-04-03T06:10:40;19.33;;;13.57;;
32393;SDS011;18853;45.426;9.206;2023-04-03T06:13:05;17.80;;;12.93;;
32393;SDS011;18853;45.426;9.206;2023-04-03T06:15:32;18.98;;;12.90;;
32393;SDS011;18853;45.426;9.206;2023-04-03T06:17:58;18.42;;;13.65;;
32393;SDS011;18853;45.426;9.206;2023-04-03T06:20:24;19.63;;;13.32;;
32393;SDS011;18853;45.426;9.206;2023-04-03T06:22:50;17.77;;;13.25;;
32393;SDS011;18853;45.426;9.206;2023-04-03T06:25:16;18.85;;;13.25;;
32393;SDS011;18853;45.426;9.206;2023-04-03T06:27:44;19.58;;;12.98;;
32393;SDS011;18853;45.426;9.206;2023-04-03T06:30:10;18.38;;;13.23;;
32393;SDS011;18853;45.426;9.206;2023-04-03T06:32:37;18.50;;;13.57;;
32393;SDS011;18853;45.426;9.206;2023-04-03T06:35:03;21.92;;;14.07;;
32393;SDS011;18853;45.426;9.206;2023-04-03T06:37:29;20.05;;;13.75;;
32393;SDS011;18853;45.426;9.206;2023-04-03T06:39:56;19.65;;;13.30;;
32393;SDS011;18853;45.426;9.206;2023-04-03T06:42:22;19.02;;;13.38;;
32393;SDS011;18853;45.426;9.206;2023-04-03T06:44:48;19.17;;;12.75;;
32393;SDS011;18853;45.426;9.206;2023-04-03T06:47:14;23.55;;;12.43;;
32393;SDS011;18853;45.426;9.206;2023-04-03T06:49:41;19.30;;;11.13;;
32393;SDS011;18853;45.426;9.206;2023-04-03T06:52:07;21.98;;;10.10;;
32393;SDS011;18853;45.426;9.206;2023-04-03T06:54:32;13.75;;;9.00;;
32393;SDS011;18853;45.426;9.206;2023-04-03T06:56:58;12.10;;;8.07;;
32393;SDS011;18853;45.426;9.206;2023-04-03T06:59:24;12.85;;;8.23;;
32393;SDS011;18853;45.426;9.206;2023-04-03T07:01:50;12.70;;;7.95;;
32393;SDS011;18853;45.426;9.206;2023-04-03T07:04:16;15.77;;;7.82;;
32393;SDS011;18853;45.426;9.206;2023-04-03T07:06:43;16.33;;;8.35;;
32393;SDS011;18853;45.426;9.206;2023-04-03T07:09:09;10.57;;;8.10;;
32393;SDS011;18853;45.426;9.206;2023-04-03T07:11:35;12.63;;;7.85;;
32393;SDS011;18853;45.426;9.206;2023-04-03T07:14:01;14.15;;;7.55;;
32393;SDS011;18853;45.426;9.206;2023-04-03T07:16:28;11.38;;;8.20;;
32393;SDS011;18853;45.426;9.206;2023-04-03T07:18:55;10.38;;;8.10;;
32393;SDS011;18853;45.426;9.206;2023-04-03T07:21:22;12.40;;;8.10;;
32393;SDS011;18853;45.426;9.206;2023-04-03T07:23:48;12.45;;;8.25;;
32393;SDS011;18853;45.426;9.206;2023-04-03T07:26:13;11.65;;;7.55;;
32393;SDS011;18853;45.426;9.206;2023-04-03T07:28:39;12.35;;;8.27;;
32393;SDS011;18853;45.426;9.206;2023-04-03T07:31:07;11.13;;;8.07;;
32393;SDS011;18853;45.426;9.206;2023-04-03T07:33:36;14.30;;;8.00;;
32393;SDS011;18853;45.426;9.206;2023-04-03T07:36:03;12.77;;;8.18;;
32393;SDS011;18853;45.426;9.206;2023-04-03T07:38:31;12.35;;;8.55;;
32393;SDS011;18853;45.426;9.206;2023-04-03T07:40:57;11.30;;;7.60;;
32393;SDS011;18853;45.426;9.206;2023-04-03T07:43:23;13.57;;;8.45;;
32393;SDS011;18853;45.426;9.206;2023-04-03T07:45:52;10.48;;;8.02;;
32393;SDS011;18853;45.426;9.206;2023-04-03T07:48:19;12.30;;;8.32;;
32393;SDS011;18853;45.426;9.206;2023-04-03T07:50:49;10.88;;;7.85;;
32393;SDS011;18853;45.426;9.206;2023-04-03T07:53:15;10.90;;;8.30;;
32393;SDS011;18853;45.426;9.206;2023-04-03T07:55:40;12.68;;;8.45;;
32393;SDS011;18853;45.426;9.206;2023-04-03T07:58:12;9.88;;;8.15;;
32393;SDS011;18853;45.426;9.206;2023-04-03T08:00:40;14.52;;;8.48;;
32393;SDS011;18853;45.426;9.206;2023-04-03T08:03:06;12.25;;;8.05;;
32393;SDS011;18853;45.426;9.206;2023-04-03T08:05:37;11.27;;;8.45;;
32393;SDS011;18853;45.426;9.206;2023-04-03T08:08:05;12.05;;;8.50;;
32393;SDS011;18853;45.426;9.206;2023-04-03T08:10:31;12.30;;;7.80;;
32393;SDS011;18853;45.426;9.206;2023-04-03T08:12:57;12.77;;;8.77;;
32393;SDS011;18853;45.426;9.206;2023-04-03T08:15:23;12.88;;;8.68;;
32393;SDS011;18853;45.426;9.206;2023-04-03T08:17:49;12.00;;;8.75;;
32393;SDS011;18853;45.426;9.206;2023-04-03T08:20:15;11.63;;;7.45;;
32393;SDS011;18853;45.426;9.206;2023-04-03T08:22:42;12.88;;;7.72;;
32393;SDS011;18853;45.426;9.206;2023-04-03T08:25:08;9.95;;;7.38;;
32393;SDS011;18853;45.426;9.206;2023-04-03T08:27:34;10.68;;;7.40;;
32393;SDS011;18853;45.426;9.206;2023-04-03T08:30:00;12.98;;;7.45;;
32393;SDS011;18853;45.426;9.206;2023-04-03T08:32:26;15.82;;;7.80;;
32393;SDS011;18853;45.426;9.206;2023-04-03T08:34:52;10.02;;;7.10;;
32393;SDS011;18853;45.426;9.206;2023-04-03T08:37:18;10.88;;;8.15;;
32393;SDS011;18853;45.426;9.206;2023-04-03T08:39:44;12.68;;;8.10;;
32393;SDS011;18853;45.426;9.206;2023-04-03T08:42:14;12.25;;;8.65;;
32393;SDS011;18853;45.426;9.206;2023-04-03T08:47:39;11.10;;;7.57;;
32393;SDS011;18853;45.426;9.206;2023-04-03T08:50:24;11.93;;;7.78;;
32393;SDS011;18853;45.426;9.206;2023-04-03T08:52:58;9.40;;;7.85;;
32393;SDS011;18853;45.426;9.206;2023-04-03T08:55:27;12.25;;;7.75;;
32393;SDS011;18853;45.426;9.206;2023-04-03T08:58:02;10.65;;;7.78;;
32393;SDS011;18853;45.426;9.206;2023-04-03T09:03:29;15.00;;;9.23;;
32393;SDS011;18853;45.426;9.206;2023-04-03T09:06:39;15.88;;;8.65;;
32393;SDS011;18853;45.426;9.206;2023-04-03T09:19:54;9.93;;;7.95;;
32393;SDS011;18853;45.426;9.206;2023-04-03T09:22:27;13.73;;;8.63;;
32393;SDS011;18853;45.426;9.206;2023-04-03T09:27:42;12.68;;;7.72;;
32393;SDS011;18853;45.426;9.206;2023-04-03T09:30:15;11.27;;;8.57;;
32393;SDS011;18853;45.426;9.206;2023-04-03T09:32:44;14.52;;;7.88;;
32393;SDS011;18853;45.426;9.206;2023-04-03T09:35:19;11.15;;;7.47;;
32393;SDS011;18853;45.426;9.206;2023-04-03T09:37:51;9.27;;;6.60;;
32393;SDS011;18853;45.426;9.206;2023-04-03T09:42:51;12.73;;;7.72;;
32393;SDS011;18853;45.426;9.206;2023-04-03T09:45:39;13.90;;;7.70;;
32393;SDS011;18853;45.426;9.206;2023-04-03T09:56:24;8.77;;;5.93;;
32393;SDS011;18853;45.426;9.206;2023-04-03T10:01:36;8.85;;;5.75;;
32393;SDS011;18853;45.426;9.206;2023-04-03T10:04:14;8.25;;;5.97;;
32393;SDS011;18853;45.426;9.206;2023-04-03T10:12:03;11.15;;;6.05;;
32393;SDS011;18853;45.426;9.206;2023-04-03T10:14:30;7.40;;;5.13;;
32393;SDS011;18853;45.426;9.206;2023-04-03T10:41:24;9.83;;;5.50;;
32393;SDS011;18853;45.426;9.206;2023-04-03T10:49:28;9.27;;;5.60;;
32393;SDS011;18853;45.426;9.206;2023-04-03T10:55:09;7.93;;;4.65;;
32393;SDS011;18853;45.426;9.206;2023-04-03T10:57:49;8.27;;;5.88;;
32393;SDS011;18853;45.426;9.206;2023-04-03T11:00:18;9.02;;;5.57;;
32393;SDS011;18853;45.426;9.206;2023-04-03T11:03:00;9.40;;;5.68;;
32393;SDS011;18853;45.426;9.206;2023-04-03T11:05:31;8.93;;;5.80;;
32393;SDS011;18853;45.426;9.206;2023-04-03T11:08:10;7.93;;;5.97;;
32393;SDS011;18853;45.426;9.206;2023-04-03T11:10:48;10.90;;;6.05;;
32393;SDS011;18853;45.426;9.206;2023-04-03T11:13:35;9.48;;;5.60;;
32393;SDS011;18853;45.426;9.206;2023-04-03T11:16:13;8.73;;;5.22;;
32393;SDS011;18853;45.426;9.206;2023-04-03T11:18:49;7.95;;;4.72;;
32393;SDS011;18853;45.426;9.206;2023-04-03T11:21:33;7.18;;;4.82;;
32393;SDS011;18853;45.426;9.206;2023-04-03T11:24:05;6.80;;;5.28;;
32393;SDS011;18853;45.426;9.206;2023-04-03T11:26:38;6.90;;;4.85;;
32393;SDS011;18853;45.426;9.206;2023-04-03T11:29:12;8.55;;;4.72;;
32393;SDS011;18853;45.426;9.206;2023-04-03T11:31:55;8.43;;;4.97;;
32393;SDS011;18853;45.426;9.206;2023-04-03T11:34:47;7.57;;;4.38;;
32393;SDS011;18853;45.426;9.206;2023-04-03T11:40:47;5.18;;;3.78;;
32393;SDS011;18853;45.426;9.206;2023-04-03T11:43:05;7.13;;;3.08;;
32393;SDS011;18853;45.426;9.206;2023-04-03T11:53:27;5.63;;;3.53;;
32393;SDS011;18853;45.426;9.206;2023-04-03T11:58:24;5.63;;;3.50;;
32393;SDS011;18853;45.426;9.206;2023-04-03T12:01:10;5.70;;;3.33;;
32393;SDS011;18853;45.426;9.206;2023-04-03T12:03:57;5.47;;;3.00;;
32393;SDS011;18853;45.426;9.206;2023-04-03T12:09:00;6.28;;;3.10;;
32393;SDS011;18853;45.426;9.206;2023-04-03T12:11:29;11.98;;;3.47;;
32393;SDS011;18853;45.426;9.206;2023-04-03T12:16:26;3.88;;;2.15;;
32393;SDS011;18853;45.426;9.206;2023-04-03T12:31:43;4.70;;;2.53;;
32393;SDS011;18853;45.426;9.206;2023-04-03T12:34:22;4.90;;;2.60;;
32393;SDS011;18853;45.426;9.206;2023-04-03T12:37:03;5.60;;;3.03;;
32393;SDS011;18853;45.426;9.206;2023-04-03T12:39:48;4.40;;;2.20;;
32393;SDS011;18853;45.426;9.206;2023-04-03T12:48:31;3.88;;;2.45;;
32393;SDS011;18853;45.426;9.206;2023-04-03T12:50:59;3.25;;;2.08;;
32393;SDS011;18853;45.426;9.206;2023-04-03T12:53:32;3.15;;;2.22;;
32393;SDS011;18853;45.426;9.206;2023-04-03T12:56:20;3.30;;;2.15;;
32393;SDS011;18853;45.426;9.206;2023-04-03T12:58:48;4.35;;;2.30;;
32393;SDS011;18853;45.426;9.206;2023-04-03T13:01:16;5.63;;;2.10;;
32393;SDS011;18853;45.426;9.206;2023-04-03T13:03:44;4.47;;;2.10;;
32393;SDS011;18853;45.426;9.206;2023-04-03T13:06:23;4.43;;;2.30;;
32393;SDS011;18853;45.426;9.206;2023-04-03T13:08:54;4.43;;;2.15;;
32393;SDS011;18853;45.426;9.206;2023-04-03T13:11:23;9.00;;;2.10;;
32393;SDS011;18853;45.426;9.206;2023-04-03T13:13:58;7.63;;;2.65;;
32393;SDS011;18853;45.426;9.206;2023-04-03T13:16:26;3.70;;;2.05;;
32393;SDS011;18853;45.426;9.206;2023-04-03T13:18:53;3.67;;;2.30;;
32393;SDS011;18853;45.426;9.206;2023-04-03T13:21:24;3.60;;;2.67;;
32393;SDS011;18853;45.426;9.206;2023-04-03T13:23:56;4.55;;;2.65;;
32393;SDS011;18853;45.426;9.206;2023-04-03T13:26:26;3.20;;;2.05;;
32393;SDS011;18853;45.426;9.206;2023-04-03T13:28:54;5.72;;;2.20;;
32393;SDS011;18853;45.426;9.206;2023-04-03T13:31:28;4.28;;;2.47;;
32393;SDS011;18853;45.426;9.206;2023-04-03T13:36:38;3.88;;;1.77;;
32393;SDS011;18853;45.426;9.206;2023-04-03T13:39:22;4.03;;;1.77;;
32393;SDS011;18853;45.426;9.206;2023-04-03T13:41:59;3.90;;;1.80;;
32393;SDS011;18853;45.426;9.206;2023-04-03T13:44:39;3.80;;;1.83;;
32393;SDS011;18853;45.426;9.206;2023-04-03T13:50:04;4.82;;;1.63;;
32393;SDS011;18853;45.426;9.206;2023-04-03T13:52:43;4.18;;;1.70;;
32393;SDS011;18853;45.426;9.206;2023-04-03T13:57:51;5.10;;;1.55;;
32393;SDS011;18853;45.426;9.206;2023-04-03T14:00:39;3.92;;;2.00;;
32393;SDS011;18853;45.426;9.206;2023-04-03T14:03:23;4.60;;;1.48;;
32393;SDS011;18853;45.426;9.206;2023-04-03T14:05:55;5.38;;;1.50;;
32393;SDS011;18853;45.426;9.206;2023-04-03T14:08:21;2.83;;;1.65;;
32393;SDS011;18853;45.426;9.206;2023-04-03T14:10:47;4.22;;;1.58;;
32393;SDS011;18853;45.426;9.206;2023-04-03T14:13:16;4.18;;;1.25;;
32393;SDS011;18853;45.426;9.206;2023-04-03T14:15:44;4.35;;;1.42;;
32393;SDS011;18853;45.426;9.206;2023-04-03T14:18:13;5.10;;;2.38;;
32393;SDS011;18853;45.426;9.206;2023-04-03T14:20:40;3.97;;;1.40;;
32393;SDS011;18853;45.426;9.206;2023-04-03T14:23:07;3.00;;;1.80;;
32393;SDS011;18853;45.426;9.206;2023-04-03T14:25:32;6.10;;;1.67;;
32393;SDS011;18853;45.426;9.206;2023-04-03T14:27:59;5.30;;;2.00;;
32393;SDS011;18853;45.426;9.206;2023-04-03T14:32:57;3.17;;;1.67;;
32393;SDS011;18853;45.426;9.206;2023-04-03T14:35:23;2.53;;;1.30;;
32393;SDS011;18853;45.426;9.206;2023-04-03T14:37:50;4.82;;;1.40;;
32393;SDS011;18853;45.426;9.206;2023-04-03T14:40:19;4.82;;;1.55;;
32393;SDS011;18853;45.426;9.206;2023-04-03T14:42:49;5.03;;;1.40;;
32393;SDS011;18853;45.426;9.206;2023-04-03T14:45:16;3.70;;;1.25;;
32393;SDS011;18853;45.426;9.206;2023-04-03T14:47:50;6.10;;;1.60;;
32393;SDS011;18853;45.426;9.206;2023-04-03T14:50:26;5.25;;;1.67;;
32393;SDS011;18853;45.426;9.206;2023-04-03T14:52:54;2.92;;;1.30;;
32393;SDS011;18853;45.426;9.206;2023-04-03T14:55:23;3.35;;;1.40;;
32393;SDS011;18853;45.426;9.206;2023-04-03T14:57:49;3.55;;;1.50;;
32393;SDS011;18853;45.426;9.206;2023-04-03T15:00:20;5.95;;;1.77;;
32393;SDS011;18853;45.426;9.206;2023-04-03T15:02:47;4.80;;;1.80;;
32393;SDS011;18853;45.426;9.206;2023-04-03T15:05:13;8.55;;;2.05;;
32393;SDS011;18853;45.426;9.206;2023-04-03T15:07:55;5.93;;;1.80;;
32393;SDS011;18853;45.426;9.206;2023-04-03T15:10:23;3.60;;;1.77;;
32393;SDS011;18853;45.426;9.206;2023-04-03T15:12:51;7.75;;;1.80;;
32393;SDS011;18853;45.426;9.206;2023-04-03T15:15:17;3.72;;;1.63;;
32393;SDS011;18853;45.426;9.206;2023-04-03T15:17:45;3.47;;;2.08;;
32393;SDS011;18853;45.426;9.206;2023-04-03T15:22:38;8.93;;;2.50;;
32393;SDS011;18853;45.426;9.206;2023-04-03T15:25:04;5.57;;;1.92;;
32393;SDS011;18853;45.426;9.206;2023-04-03T15:27:30;9.90;;;2.85;;
32393;SDS011;18853;45.426;9.206;2023-04-03T15:29:55;8.82;;;2.33;;
32393;SDS011;18853;45.426;9.206;2023-04-03T15:32:21;11.18;;;2.83;;
32393;SDS011;18853;45.426;9.206;2023-04-03T15:34:47;4.43;;;2.10;;
32393;SDS011;18853;45.426;9.206;2023-04-03T15:37:12;9.80;;;2.10;;
32393;SDS011;18853;45.426;9.206;2023-04-03T15:39:38;6.57;;;2.13;;
32393;SDS011;18853;45.426;9.206;2023-04-03T15:42:04;7.55;;;2.35;;
32393;SDS011;18853;45.426;9.206;2023-04-03T15:44:35;6.15;;;1.85;;
32393;SDS011;18853;45.426;9.206;2023-04-03T15:47:01;4.57;;;2.00;;
32393;SDS011;18853;45.426;9.206;2023-04-03T15:49:27;6.35;;;1.98;;
32393;SDS011;18853;45.426;9.206;2023-04-03T15:51:53;3.63;;;1.70;;
32393;SDS011;18853;45.426;9.206;2023-04-03T15:54:19;5.68;;;2.00;;
32393;SDS011;18853;45.426;9.206;2023-04-03T15:56:45;4.82;;;1.98;;
32393;SDS011;18853;45.426;9.206;2023-04-03T15:59:10;5.18;;;1.88;;
32393;SDS011;18853;45.426;9.206;2023-04-03T16:01:36;3.25;;;1.77;;
32393;SDS011;18853;45.426;9.206;2023-04-03T16:04:04;8.10;;;1.92;;
32393;SDS011;18853;45.426;9.206;2023-04-03T16:06:30;8.65;;;1.95;;
32393;SDS011;18853;45.426;9.206;2023-04-03T16:08:58;4.82;;;2.22;;
32393;SDS011;18853;45.426;9.206;2023-04-03T16:11:25;5.55;;;1.75;;
32393;SDS011;18853;45.426;9.206;2023-04-03T16:13:52;5.88;;;1.80;;
32393;SDS011;18853;45.426;9.206;2023-04-03T16:16:18;10.13;;;1.88;;
32393;SDS011;18853;45.426;9.206;2023-04-03T16:18:45;7.50;;;2.40;;
32393;SDS011;18853;45.426;9.206;2023-04-03T16:21:12;11.23;;;2.28;;
32393;SDS011;18853;45.426;9.206;2023-04-03T16:23:39;10.20;;;2.15;;
32393;SDS011;18853;45.426;9.206;2023-04-03T16:26:05;5.70;;;1.88;;
32393;SDS011;18853;45.426;9.206;2023-04-03T16:28:31;6.05;;;1.90;;
32393;SDS011;18853;45.426;9.206;2023-04-03T16:30:57;7.18;;;2.25;;
32393;SDS011;18853;45.426;9.206;2023-04-03T16:33:23;7.50;;;2.20;;
32393;SDS011;18853;45.426;9.206;2023-04-03T16:35:49;7.32;;;2.03;;
32393;SDS011;18853;45.426;9.206;2023-04-03T16:38:15;9.32;;;2.25;;
32393;SDS011;18853;45.426;9.206;2023-04-03T16:40:43;6.13;;;2.40;;
32393;SDS011;18853;45.426;9.206;2023-04-03T16:43:10;5.03;;;2.40;;
32393;SDS011;18853;45.426;9.206;2023-04-03T16:45:36;9.82;;;2.50;;
32393;SDS011;18853;45.426;9.206;2023-04-03T16:48:01;6.97;;;2.03;;
32393;SDS011;18853;45.426;9.206;2023-04-03T16:50:27;7.53;;;2.30;;
32393;SDS011;18853;45.426;9.206;2023-04-03T16:52:53;11.00;;;2.53;;